createdAt,value
2023-01-11T00:01:52.991Z,0.35
2023-01-11T00:05:05.794Z,3.58
2023-01-11T00:08:19.240Z,0.30
2023-01-11T00:11:31.816Z,0.20
2023-01-11T00:14:44.188Z,0.20
2023-01-11T00:17:57.698Z,0.17
2023-01-11T00:21:10.493Z,0.35
2023-01-11T00:24:23.091Z,0.20
2023-01-11T00:27:35.375Z,0.30
2023-01-11T00:30:49.201Z,0.20
2023-01-11T00:34:01.496Z,0.30
2023-01-11T00:37:14.081Z,0.20
2023-01-11T00:40:27.097Z,0.20
2023-01-11T00:43:58.303Z,0.40
2023-01-11T00:47:33.188Z,0.25
2023-01-11T00:50:45.765Z,0.20
2023-01-11T00:53:58.028Z,0.30
2023-01-11T00:57:10.679Z,0.25
2023-01-11T01:00:23.010Z,0.20
2023-01-11T01:03:35.574Z,0.30
2023-01-11T01:06:47.964Z,0.20
2023-01-11T01:10:00.597Z,0.73
2023-01-11T01:13:48.285Z,0.30
2023-01-11T01:17:02.459Z,0.30
2023-01-11T01:20:15.083Z,0.30
2023-01-11T01:23:27.628Z,1.30
2023-01-11T01:26:39.930Z,0.10
2023-01-11T01:29:52.493Z,0.20
2023-01-11T01:33:04.763Z,0.25
2023-01-11T01:36:17.337Z,0.40
2023-01-11T01:39:29.775Z,0.20
2023-01-11T01:42:42.408Z,1.60
2023-01-11T01:45:56.220Z,0.20
2023-01-11T01:49:13.772Z,7.12
2023-01-11T01:55:43.729Z,0.30
2023-01-11T01:58:59.123Z,0.20
2023-01-11T02:02:11.993Z,0.20
2023-01-11T02:05:24.577Z,0.20
2023-01-11T02:08:38.227Z,0.30
2023-01-11T02:11:50.790Z,0.17
2023-01-11T02:15:03.489Z,0.65
2023-01-11T02:18:18.591Z,0.10
2023-01-11T02:21:49.062Z,0.77
2023-01-11T02:25:48.142Z,1.77
2023-01-11T02:29:00.298Z,0.22
2023-01-11T02:32:37.489Z,0.20
2023-01-11T02:36:06.946Z,0.20
2023-01-11T02:39:31.073Z,0.20
2023-01-11T02:43:13.560Z,0.25
2023-01-11T02:46:42.179Z,2.17
2023-01-11T02:50:14.171Z,0.20
2023-01-11T02:53:35.544Z,0.30
2023-01-11T02:56:48.810Z,0.20
2023-01-11T03:00:01.421Z,1.37
2023-01-11T03:03:18.639Z,0.30
2023-01-11T03:06:34.425Z,0.20
2023-01-11T03:09:53.781Z,0.20
2023-01-11T03:13:38.615Z,0.20
2023-01-11T03:17:09.229Z,0.20
2023-01-11T03:20:33.210Z,1.92
2023-01-11T03:24:13.583Z,0.20
2023-01-11T03:27:44.656Z,0.70
2023-01-11T03:31:14.037Z,0.20
2023-01-11T03:34:26.467Z,0.20
2023-01-11T03:37:44.431Z,0.20
2023-01-11T03:41:09.806Z,0.30
2023-01-11T03:44:22.160Z,0.30
2023-01-11T03:47:34.755Z,0.90
2023-01-11T03:50:47.128Z,0.20
2023-01-11T03:54:01.219Z,0.30
2023-01-11T03:57:18.557Z,0.20
2023-01-11T04:00:31.261Z,0.20
2023-01-11T04:03:43.875Z,0.30
2023-01-11T04:06:56.260Z,0.30
2023-01-11T04:10:09.595Z,0.20
2023-01-11T04:13:21.852Z,0.20
2023-01-11T04:16:34.578Z,0.20
2023-01-11T04:19:46.890Z,0.25
2023-01-11T04:22:59.504Z,0.20
2023-01-11T04:26:11.773Z,0.20
2023-01-11T04:29:24.334Z,0.30
2023-01-11T04:32:36.673Z,0.15
2023-01-11T04:35:50.144Z,0.93
2023-01-11T04:39:02.442Z,0.22
2023-01-11T04:42:21.227Z,0.22
2023-01-11T04:45:33.687Z,0.60
2023-01-11T04:48:46.269Z,0.10
2023-01-11T04:51:58.815Z,1.05
2023-01-11T04:55:11.349Z,0.77
2023-01-11T04:58:23.639Z,0.20
2023-01-11T05:01:36.206Z,0.20
2023-01-11T05:04:48.481Z,1.00
2023-01-11T05:08:01.142Z,0.70
2023-01-11T05:11:13.510Z,0.30
2023-01-11T05:14:26.098Z,0.62
2023-01-11T05:17:38.462Z,0.20
2023-01-11T05:20:51.103Z,0.20
2023-01-11T05:24:04.441Z,0.20
2023-01-11T05:27:17.055Z,0.20
2023-01-11T05:30:29.402Z,0.20
2023-01-11T05:33:42.057Z,0.93
2023-01-11T05:36:54.399Z,0.25
2023-01-11T05:40:07.511Z,0.30
2023-01-11T05:43:19.846Z,0.20
2023-01-11T05:46:33.135Z,4.18
2023-01-11T05:49:45.626Z,0.22
2023-01-11T05:52:58.237Z,0.20
2023-01-11T05:56:10.533Z,0.60
2023-01-11T05:59:23.189Z,0.20
2023-01-11T06:02:35.953Z,0.20
2023-01-11T06:05:48.693Z,0.20
2023-01-11T06:09:01.077Z,0.30
2023-01-11T06:12:13.706Z,1.20
2023-01-11T06:15:26.079Z,0.37
2023-01-11T06:18:40.320Z,0.50
2023-01-11T06:21:52.662Z,0.30
2023-01-11T06:25:05.670Z,0.25
2023-01-11T06:28:18.197Z,2.67
2023-01-11T06:31:31.117Z,0.20
2023-01-11T06:34:43.490Z,0.20
2023-01-11T06:37:58.538Z,0.20
2023-01-11T06:41:12.323Z,0.28
2023-01-11T06:44:25.105Z,2.35
2023-01-11T06:47:37.510Z,0.30
2023-01-11T06:50:51.856Z,2.85
2023-01-11T06:54:04.315Z,2.85
2023-01-11T06:57:16.958Z,0.30
2023-01-11T07:00:29.331Z,0.30
2023-01-11T07:03:42.238Z,2.15
2023-01-11T07:06:55.904Z,0.22
2023-01-11T07:10:12.535Z,1.77
2023-01-11T07:13:25.666Z,0.30
2023-01-11T07:16:40.171Z,0.40
2023-01-11T07:19:58.769Z,0.20
2023-01-11T07:23:15.333Z,0.70
2023-01-11T07:26:30.610Z,0.20
2023-01-11T07:29:48.046Z,0.25
2023-01-11T07:33:02.969Z,0.20
2023-01-11T07:36:15.648Z,0.30
2023-01-11T07:39:42.705Z,0.28
2023-01-11T07:43:17.304Z,0.20
2023-01-11T07:46:31.405Z,0.20
2023-01-11T07:49:45.336Z,0.20
2023-01-11T07:52:58.057Z,0.10
2023-01-11T07:56:12.847Z,0.20
2023-01-11T07:59:37.987Z,0.30
2023-01-11T08:02:55.338Z,0.25
2023-01-11T08:06:12.786Z,0.20
2023-01-11T08:09:26.993Z,0.43
2023-01-11T08:13:14.144Z,0.20
2023-01-11T08:16:27.560Z,0.25
2023-01-11T08:19:42.955Z,0.20
2023-01-11T08:22:57.156Z,0.20
2023-01-11T08:26:18.050Z,0.22
2023-01-11T08:29:36.520Z,0.20
2023-01-11T08:33:04.996Z,1.75
2023-01-11T08:36:38.843Z,0.70
2023-01-11T08:40:04.888Z,0.20
2023-01-11T08:43:18.373Z,0.20
2023-01-11T08:46:34.700Z,0.20
2023-01-11T08:49:48.595Z,1.50
2023-01-11T08:53:02.366Z,0.45
2023-01-11T08:56:15.299Z,1.15
2023-01-11T08:59:29.254Z,0.68
2023-01-11T09:02:44.536Z,0.70
2023-01-11T09:06:06.372Z,0.20
2023-01-11T09:09:20.773Z,1.20
2023-01-11T09:12:37.113Z,0.20
2023-01-11T09:15:55.514Z,0.30
2023-01-11T09:19:26.277Z,0.30
2023-01-11T09:22:48.807Z,0.20
2023-01-11T09:26:07.887Z,0.20
2023-01-11T09:29:23.024Z,1.75
2023-01-11T09:32:42.412Z,1.00
2023-01-11T09:36:07.852Z,0.20
2023-01-11T09:39:27.836Z,0.30
2023-01-11T09:42:41.172Z,0.20
2023-01-11T09:46:03.435Z,0.17
2023-01-11T09:49:44.483Z,0.50
2023-01-11T09:53:08.864Z,1.95
2023-01-11T09:56:25.905Z,0.45
2023-01-11T10:00:17.441Z,2.72
2023-01-11T10:04:20.750Z,0.20
2023-01-11T10:18:28.854Z,0.77
2023-01-11T10:19:41.368Z,0.20
2023-01-11T10:23:02.842Z,0.20
2023-01-11T10:26:31.565Z,0.20
2023-01-11T10:30:06.690Z,0.47
2023-01-11T10:33:37.939Z,2.35
2023-01-11T10:37:22.005Z,0.30
2023-01-11T10:41:06.239Z,0.50
2023-01-11T10:44:28.921Z,0.70
2023-01-11T10:48:10.454Z,0.20
2023-01-11T10:51:32.098Z,0.82
2023-01-11T10:54:51.439Z,0.28
2023-01-11T10:58:14.076Z,1.75
2023-01-11T11:01:38.459Z,0.35
2023-01-11T11:04:54.923Z,0.20
2023-01-11T11:08:18.185Z,0.73
2023-01-11T11:11:39.175Z,1.40
2023-01-11T11:15:04.717Z,0.70
2023-01-11T11:18:17.695Z,0.50
2023-01-11T11:21:38.989Z,1.08
2023-01-11T11:25:17.669Z,0.35
2023-01-11T11:28:32.694Z,0.10
2023-01-11T11:31:47.119Z,0.30
2023-01-11T11:35:01.283Z,0.20
2023-01-11T11:38:25.462Z,0.20
2023-01-11T11:41:52.041Z,0.20
2023-01-11T11:45:12.960Z,0.75
2023-01-11T11:48:27.153Z,0.82
2023-01-11T11:51:39.828Z,0.68
2023-01-11T11:54:56.185Z,0.22
2023-01-11T11:58:11.584Z,0.50
2023-01-11T12:01:35.013Z,0.20
2023-01-11T12:04:48.809Z,0.20
2023-01-11T12:08:02.202Z,0.30
2023-01-11T12:11:21.820Z,0.10
2023-01-11T12:14:35.239Z,0.50
2023-01-11T12:17:49.779Z,0.68
2023-01-11T12:21:21.961Z,0.10
2023-01-11T12:24:34.680Z,0.22
2023-01-11T12:28:33.027Z,0.57
2023-01-11T12:32:00.731Z,0.45
2023-01-11T12:35:35.219Z,0.37
2023-01-11T12:39:18.636Z,0.28
2023-01-11T12:42:47.744Z,0.57
2023-01-11T12:46:09.241Z,0.17
2023-01-11T12:49:27.481Z,0.20
2023-01-11T12:52:55.362Z,0.10
2023-01-11T12:56:22.788Z,0.20
2023-01-11T12:59:58.242Z,0.60
2023-01-11T13:03:45.439Z,1.05
2023-01-11T13:07:22.542Z,0.30
2023-01-11T13:10:56.424Z,0.20
2023-01-11T13:14:36.473Z,0.65
2023-01-11T13:18:18.334Z,0.20
2023-01-11T13:21:43.295Z,0.30
2023-01-11T13:24:55.655Z,0.10
2023-01-11T13:28:38.823Z,0.40
2023-01-11T13:31:51.177Z,0.40
2023-01-11T13:35:13.992Z,1.20
2023-01-11T13:39:00.611Z,0.62
2023-01-11T13:42:20.626Z,0.62
2023-01-11T13:45:40.148Z,0.10
2023-01-11T13:48:56.243Z,0.20
2023-01-11T13:52:12.299Z,0.10
2023-01-11T13:55:31.027Z,0.67
2023-01-11T13:58:51.128Z,1.60
2023-01-11T14:02:28.299Z,0.30
2023-01-11T14:05:48.431Z,3.53
2023-01-11T14:09:23.551Z,0.20
2023-01-11T14:12:49.751Z,0.20
2023-01-11T14:16:07.300Z,0.22
2023-01-11T14:20:00.499Z,0.50
2023-01-11T14:23:38.912Z,0.40
2023-01-11T14:27:30.227Z,0.68
2023-01-11T14:31:00.523Z,0.45
2023-01-11T14:34:17.332Z,0.20
2023-01-11T14:37:48.562Z,0.80
2023-01-11T14:41:30.767Z,1.73
2023-01-11T14:45:06.335Z,1.87
2023-01-11T14:48:36.039Z,0.43
2023-01-11T14:51:54.401Z,0.60
2023-01-11T14:55:37.631Z,0.68
2023-01-11T14:59:07.306Z,5.78
2023-01-11T15:02:27.482Z,6.65
2023-01-11T15:05:51.542Z,1.10
2023-01-11T15:09:04.227Z,3.20
2023-01-11T15:12:20.691Z,1.45
2023-01-11T15:15:52.122Z,2.70
2023-01-11T15:19:06.385Z,5.43
2023-01-11T15:22:30.232Z,7.85
2023-01-11T15:25:42.539Z,2.90
2023-01-11T15:28:59.461Z,3.10
2023-01-11T15:32:24.696Z,7.32
2023-01-11T15:35:37.465Z,1.77
2023-01-11T15:38:57.677Z,4.25
2023-01-11T15:42:16.418Z,3.00
2023-01-11T15:46:17.242Z,5.93
2023-01-11T15:50:04.385Z,4.45
2023-01-11T15:53:19.636Z,3.33
2023-01-11T15:56:57.044Z,1.60
2023-01-11T16:00:47.451Z,1.10
2023-01-11T16:04:12.180Z,2.42
2023-01-11T16:07:44.060Z,4.87
2023-01-11T16:11:08.983Z,3.95
2023-01-11T16:14:27.280Z,2.30
2023-01-11T16:17:40.469Z,1.23
2023-01-11T16:21:18.130Z,1.27
2023-01-11T16:24:33.572Z,2.28
2023-01-11T16:27:51.211Z,1.55
2023-01-11T16:31:05.079Z,1.20
2023-01-11T16:34:18.229Z,1.02
2023-01-11T16:37:38.622Z,9.07
2023-01-11T16:40:52.705Z,3.58
2023-01-11T16:44:07.332Z,4.50
2023-01-11T16:47:20.609Z,2.28
2023-01-11T16:50:36.113Z,5.78
2023-01-11T16:53:54.843Z,2.00
2023-01-11T16:57:10.040Z,1.90
2023-01-11T17:00:32.298Z,5.72
2023-01-11T17:03:49.547Z,1.20
2023-01-11T17:07:24.440Z,2.80
2023-01-11T17:10:37.231Z,2.87
2023-01-11T17:14:17.355Z,1.23
2023-01-11T17:17:34.785Z,10.30
2023-01-11T17:24:04.584Z,5.10
2023-01-11T17:27:25.055Z,0.50
2023-01-11T17:30:37.655Z,1.85
2023-01-11T17:33:59.390Z,3.62
2023-01-11T17:37:15.220Z,0.65
2023-01-11T17:40:39.983Z,2.75
2023-01-11T17:44:11.322Z,4.50
2023-01-11T17:47:23.714Z,4.55
2023-01-11T17:50:57.252Z,4.75
2023-01-11T17:54:19.469Z,2.58
2023-01-11T17:57:32.087Z,3.85
2023-01-11T18:00:45.895Z,2.55
2023-01-11T18:04:01.312Z,6.78
2023-01-11T18:07:16.693Z,3.60
2023-01-11T18:10:30.339Z,2.50
2023-01-11T18:13:42.688Z,8.93
2023-01-11T18:17:00.172Z,6.47
2023-01-11T18:23:27.819Z,4.25
2023-01-11T18:26:41.120Z,6.37
2023-01-11T18:29:55.051Z,1.52
2023-01-11T18:33:22.585Z,4.85
2023-01-11T18:36:35.340Z,3.00
2023-01-11T18:39:47.754Z,8.38
2023-01-11T18:43:00.388Z,3.03
2023-01-11T18:46:12.755Z,7.87
2023-01-11T18:49:25.459Z,8.80
2023-01-11T18:52:37.853Z,3.65
2023-01-11T18:55:50.524Z,4.10
2023-01-11T18:59:02.878Z,8.70
2023-01-11T19:02:28.888Z,3.58
2023-01-11T19:05:41.281Z,6.00
2023-01-11T19:08:54.038Z,6.80
2023-01-11T19:12:06.587Z,3.33
2023-01-11T19:15:19.199Z,2.25
2023-01-11T19:18:34.095Z,3.80
2023-01-11T19:21:47.687Z,5.28
2023-01-11T19:25:00.055Z,2.78
2023-01-11T19:28:12.817Z,5.18
2023-01-11T19:31:25.206Z,7.10
2023-01-11T19:34:39.741Z,16.87
2023-01-11T19:37:52.291Z,4.22
2023-01-11T19:41:05.966Z,5.53
2023-01-11T19:44:18.376Z,1.37
2023-01-11T19:47:31.003Z,2.40
2023-01-11T19:50:43.357Z,5.62
2023-01-11T19:53:56.010Z,1.40
2023-01-11T19:57:12.380Z,5.03
2023-01-11T20:00:24.977Z,6.90
2023-01-11T20:03:37.682Z,9.25
2023-01-11T20:06:53.935Z,9.43
2023-01-11T20:10:08.965Z,5.70
2023-01-11T20:13:21.429Z,3.15
2023-01-11T20:16:34.062Z,2.45
2023-01-11T20:19:46.919Z,7.87
2023-01-11T20:22:59.550Z,4.07
2023-01-11T20:26:17.891Z,5.65
2023-01-11T20:29:30.487Z,6.10
2023-01-11T20:32:42.839Z,13.85
2023-01-11T20:35:55.443Z,4.07
2023-01-11T20:39:08.347Z,7.62
2023-01-11T20:42:21.018Z,9.93
2023-01-11T20:45:33.350Z,8.32
2023-01-11T20:48:45.984Z,3.92
2023-01-11T20:51:58.369Z,3.15
2023-01-11T20:55:11.109Z,8.02
2023-01-11T20:58:23.526Z,3.60
2023-01-11T21:01:36.566Z,3.50
2023-01-11T21:04:48.911Z,4.97
2023-01-11T21:08:01.537Z,6.97
2023-01-11T21:11:14.694Z,3.65
2023-01-11T21:14:27.361Z,2.40
2023-01-11T21:17:39.735Z,5.37
2023-01-11T21:20:52.332Z,3.08
2023-01-11T21:24:05.217Z,9.68
2023-01-11T21:27:17.877Z,5.05
2023-01-11T21:30:30.256Z,10.68
2023-01-11T21:33:42.891Z,14.13
2023-01-11T21:36:55.263Z,6.45
2023-01-11T21:40:08.645Z,4.00
2023-01-11T21:43:20.942Z,3.60
2023-01-11T21:46:33.594Z,3.45
2023-01-11T21:49:45.934Z,9.48
2023-01-11T21:52:59.335Z,7.57
2023-01-11T21:56:11.654Z,10.57
2023-01-11T21:59:24.764Z,3.15
2023-01-11T22:02:37.080Z,16.33
2023-01-11T22:05:49.705Z,8.68
2023-01-11T22:09:02.221Z,11.18
2023-01-11T22:12:14.861Z,12.35
2023-01-11T22:15:27.157Z,4.35
2023-01-11T22:18:41.278Z,6.22
2023-01-11T22:21:53.588Z,4.18
2023-01-11T22:25:06.760Z,18.58
2023-01-11T22:28:19.092Z,10.60
2023-01-11T22:31:32.210Z,6.60
2023-01-11T22:34:44.560Z,9.38
2023-01-11T22:37:57.363Z,6.82
2023-01-11T22:41:09.870Z,10.57
2023-01-11T22:44:22.550Z,4.65
2023-01-11T22:47:34.985Z,6.50
2023-01-11T22:50:47.629Z,4.53
2023-01-11T22:53:59.962Z,2.37
2023-01-11T22:57:12.550Z,4.05
2023-01-11T23:00:24.896Z,3.22
2023-01-11T23:03:38.118Z,9.43
2023-01-11T23:06:50.451Z,2.90
2023-01-11T23:10:05.451Z,7.20
2023-01-11T23:13:36.325Z,5.10
2023-01-11T23:16:49.815Z,16.33
2023-01-11T23:20:02.205Z,7.00
2023-01-11T23:23:14.812Z,8.20
2023-01-11T23:26:27.131Z,5.05
2023-01-11T23:29:39.757Z,8.13
2023-01-11T23:32:52.126Z,0.40
2023-01-11T23:36:05.268Z,10.18
2023-01-11T23:39:18.865Z,4.22
2023-01-11T23:42:31.566Z,7.60
2023-01-11T23:45:43.917Z,4.95
2023-01-11T23:48:56.567Z,4.53
2023-01-11T23:52:08.920Z,8.43
2023-01-11T23:55:21.533Z,4.40
2023-01-11T23:58:33.990Z,9.90
